createdAt,value
2022-08-07T00:02:40.754Z,52.70
2022-08-07T00:07:27.309Z,52.80
2022-08-07T00:12:31.764Z,52.80
2022-08-07T00:17:36.053Z,52.80
2022-08-07T00:22:40.960Z,52.80
2022-08-07T00:27:53.774Z,52.90
2022-08-07T00:33:02.141Z,52.90
2022-08-07T00:38:07.656Z,52.80
2022-08-07T00:43:59.753Z,52.80
2022-08-07T00:48:36.618Z,52.90
2022-08-07T00:53:55.048Z,52.90
2022-08-07T00:58:59.070Z,53.00
2022-08-07T01:04:06.428Z,53.20
2022-08-07T01:09:35.554Z,53.10
2022-08-07T01:14:37.042Z,53.10
2022-08-07T01:19:42.050Z,53.00
2022-08-07T01:24:59.597Z,53.00
2022-08-07T01:30:05.389Z,53.00
2022-08-07T01:35:09.849Z,53.10
2022-08-07T01:40:22.837Z,53.10
2022-08-07T01:45:37.248Z,53.00
2022-08-07T01:50:55.560Z,53.00
2022-08-07T01:56:05.532Z,53.00
2022-08-07T02:01:59.213Z,53.10
2022-08-07T02:06:37.515Z,53.10
2022-08-07T02:12:03.591Z,53.10
2022-08-07T02:17:11.815Z,53.10
2022-08-07T02:22:21.264Z,53.00
2022-08-07T02:27:34.365Z,53.00
2022-08-07T02:32:39.432Z,53.00
2022-08-07T02:38:04.028Z,53.00
2022-08-07T02:43:12.732Z,53.10
2022-08-07T02:48:17.989Z,53.20
2022-08-07T02:53:30.073Z,53.10
2022-08-07T02:58:36.045Z,53.10
2022-08-07T03:03:50.598Z,53.10
2022-08-07T03:09:02.868Z,53.10
2022-08-07T03:14:08.543Z,52.90
2022-08-07T03:19:13.727Z,53.00
2022-08-07T03:24:27.197Z,52.90
2022-08-07T03:29:49.663Z,52.80
2022-08-07T03:35:17.609Z,53.00
2022-08-07T03:40:31.234Z,53.00
2022-08-07T03:45:47.695Z,52.80
2022-08-07T03:50:57.866Z,52.90
2022-08-07T03:56:13.756Z,52.80
2022-08-07T04:01:22.419Z,52.90
2022-08-07T04:06:37.045Z,52.90
2022-08-07T04:12:25.275Z,52.80
2022-08-07T04:17:20.108Z,52.90
2022-08-07T04:22:28.887Z,52.70
2022-08-07T04:27:43.901Z,52.90
2022-08-07T04:32:58.024Z,52.70
2022-08-07T04:38:08.624Z,52.90
2022-08-07T04:43:16.507Z,52.70
2022-08-07T04:48:30.164Z,52.60
2022-08-07T04:54:01.428Z,52.80
2022-08-07T05:00:09.792Z,52.70
2022-08-07T05:04:50.140Z,52.60
2022-08-07T05:10:00.944Z,52.60
2022-08-07T05:15:23.016Z,52.50
2022-08-07T05:20:40.422Z,52.50
2022-08-07T05:26:11.238Z,52.60
2022-08-07T05:31:14.650Z,52.60
2022-08-07T05:36:32.191Z,53.20
2022-08-07T05:42:01.651Z,52.60
2022-08-07T05:47:18.042Z,52.50
2022-08-07T05:52:32.237Z,52.60
2022-08-07T05:57:42.404Z,52.70
2022-08-07T06:02:52.205Z,52.60
2022-08-07T06:08:13.748Z,52.70
2022-08-07T06:14:10.350Z,52.90
2022-08-07T06:18:55.560Z,52.90
2022-08-07T06:24:46.178Z,52.90
2022-08-07T06:29:28.670Z,53.00
2022-08-07T06:34:33.682Z,53.00
2022-08-07T06:40:17.187Z,53.20
2022-08-07T06:45:05.931Z,53.00
2022-08-07T06:50:16.117Z,53.20
2022-08-07T06:55:59.834Z,53.20
2022-08-07T07:00:53.441Z,53.20
2022-08-07T07:06:04.772Z,53.20
2022-08-07T07:11:13.154Z,53.30
2022-08-07T07:16:22.064Z,53.40
2022-08-07T07:21:40.554Z,53.30
2022-08-07T07:26:55.339Z,53.40
2022-08-07T07:32:03.202Z,53.40
2022-08-07T07:37:21.864Z,53.40
2022-08-07T07:42:34.264Z,53.50
2022-08-07T07:47:52.488Z,53.50
2022-08-07T07:52:57.313Z,53.60
2022-08-07T07:58:06.677Z,53.50
2022-08-07T08:03:16.313Z,53.50
2022-08-07T08:08:35.262Z,53.60
2022-08-07T08:13:52.862Z,54.10
2022-08-07T08:19:09.881Z,53.60
2022-08-07T08:24:44.826Z,53.60
2022-08-07T08:29:54.405Z,53.60
2022-08-07T08:35:00.768Z,54.20
2022-08-07T08:40:12.346Z,53.70
2022-08-07T08:45:41.861Z,53.60
2022-08-07T08:50:56.782Z,53.60
2022-08-07T08:56:04.247Z,53.80
2022-08-07T09:01:18.522Z,53.70
2022-08-07T09:06:34.678Z,53.80
2022-08-07T09:11:53.193Z,53.80
2022-08-07T09:17:11.042Z,53.90
2022-08-07T09:24:28.966Z,53.90
2022-08-07T09:28:00.375Z,53.90
2022-08-07T09:33:41.190Z,53.80
2022-08-07T09:38:55.561Z,53.60
2022-08-07T09:44:10.334Z,53.40
2022-08-07T09:50:02.104Z,53.50
2022-08-07T09:55:29.418Z,53.60
2022-08-07T10:00:59.282Z,53.60
2022-08-07T10:06:49.082Z,53.60
2022-08-07T10:12:18.103Z,53.50
2022-08-07T10:18:00.868Z,53.70
2022-08-07T10:24:05.920Z,53.50
2022-08-07T10:29:04.808Z,53.40
2022-08-07T10:34:27.237Z,53.40
2022-08-07T10:40:03.283Z,53.40
2022-08-07T10:45:44.671Z,53.20
2022-08-07T10:50:54.867Z,53.00
2022-08-07T10:56:06.581Z,52.30
2022-08-07T11:01:35.190Z,52.40
2022-08-07T11:07:00.596Z,52.80
2022-08-07T11:12:18.974Z,52.80
2022-08-07T11:17:46.085Z,52.80
2022-08-07T11:22:56.814Z,52.80
2022-08-07T11:28:08.458Z,52.90
2022-08-07T11:33:54.066Z,52.80
2022-08-07T11:38:59.017Z,52.80
2022-08-07T11:44:14.270Z,52.80
2022-08-07T11:50:31.033Z,52.80
2022-08-07T11:56:25.604Z,52.70
2022-08-07T12:01:11.201Z,52.50
2022-08-07T12:06:50.744Z,52.20
2022-08-07T12:12:10.001Z,52.40
2022-08-07T12:17:33.910Z,52.10
2022-08-07T12:22:56.297Z,52.30
2022-08-07T12:28:10.098Z,52.60
2022-08-07T12:33:28.393Z,52.50
2022-08-07T12:38:47.457Z,52.50
2022-08-07T12:44:05.299Z,52.50
2022-08-07T12:49:25.416Z,52.30
2022-08-07T12:54:54.488Z,52.40
2022-08-07T13:00:00.113Z,52.40
2022-08-07T13:06:01.789Z,52.30
2022-08-07T13:10:55.930Z,52.40
2022-08-07T13:16:03.870Z,52.40
2022-08-07T13:21:51.125Z,52.10
2022-08-07T13:26:46.341Z,52.30
2022-08-07T13:31:57.475Z,52.10
2022-08-07T13:37:10.639Z,52.10
2022-08-07T13:42:21.546Z,52.10
2022-08-07T13:47:29.557Z,51.80
2022-08-07T13:52:57.190Z,52.00
2022-08-07T13:58:27.923Z,51.90
2022-08-07T14:04:05.318Z,52.00
2022-08-07T14:09:06.459Z,52.00
2022-08-07T14:14:12.384Z,52.00
2022-08-07T14:20:41.784Z,52.00
2022-08-07T14:24:51.736Z,52.00
2022-08-07T14:30:05.538Z,52.20
2022-08-07T14:35:45.327Z,52.20
2022-08-07T14:40:49.408Z,52.10
2022-08-07T14:45:56.575Z,52.10
2022-08-07T14:51:03.435Z,51.90
2022-08-07T15:01:42.880Z,52.20
2022-08-07T15:06:55.010Z,52.10
2022-08-07T15:12:06.884Z,52.20
2022-08-07T15:17:16.802Z,52.30
2022-08-07T15:28:01.919Z,52.10
2022-08-07T15:33:19.461Z,52.30
2022-08-07T15:38:30.899Z,52.50
2022-08-07T15:43:56.030Z,52.60
2022-08-07T15:49:13.330Z,52.40
2022-08-07T15:54:18.322Z,52.40
2022-08-07T15:59:40.013Z,53.00
2022-08-07T16:04:48.069Z,52.70
2022-08-07T16:09:54.790Z,52.60
2022-08-07T16:15:55.386Z,52.70
2022-08-07T16:21:43.674Z,52.70
2022-08-07T16:26:30.786Z,52.60
2022-08-07T16:31:50.456Z,52.50
2022-08-07T16:38:03.447Z,52.50
2022-08-07T16:43:21.705Z,52.40
2022-08-07T16:50:27.097Z,52.60
2022-08-07T16:55:11.533Z,52.40
2022-08-07T17:00:30.186Z,52.20
2022-08-07T17:06:19.850Z,52.40
2022-08-07T17:11:28.150Z,52.20
2022-08-07T17:16:56.918Z,52.20
2022-08-07T17:22:04.369Z,52.10
2022-08-07T17:27:20.039Z,52.40
2022-08-07T17:32:35.626Z,52.10
2022-08-07T17:38:06.897Z,52.10
2022-08-07T17:43:18.667Z,52.10
2022-08-07T17:48:31.220Z,52.20
2022-08-07T17:54:01.998Z,52.20
2022-08-07T17:59:19.804Z,52.10
2022-08-07T18:04:34.706Z,52.10
2022-08-07T18:09:48.220Z,52.30
2022-08-07T18:15:13.054Z,52.60
2022-08-07T18:21:12.716Z,52.60
2022-08-07T18:25:51.077Z,52.50
2022-08-07T18:31:19.776Z,52.50
2022-08-07T18:36:33.400Z,52.50
2022-08-07T18:41:55.925Z,52.30
2022-08-07T18:47:22.459Z,51.80
2022-08-07T18:52:54.460Z,52.00
2022-08-07T18:58:23.734Z,51.70
2022-08-07T19:03:44.425Z,51.80
2022-08-07T19:09:09.500Z,51.50
2022-08-07T19:14:51.948Z,51.30
2022-08-07T19:20:06.192Z,51.30
2022-08-07T19:26:21.901Z,51.40
2022-08-07T19:31:38.207Z,50.90
2022-08-07T19:36:28.220Z,51.00
2022-08-07T19:42:05.621Z,50.90
2022-08-07T19:47:08.487Z,51.10
2022-08-07T19:52:19.570Z,51.00
2022-08-07T19:58:00.784Z,51.10
2022-08-07T20:02:57.543Z,51.10
2022-08-07T20:08:10.064Z,50.90
2022-08-07T20:13:23.058Z,50.80
2022-08-07T20:18:33.372Z,50.80
2022-08-07T20:23:48.461Z,51.00
2022-08-07T20:28:59.323Z,50.90
2022-08-07T20:34:03.912Z,51.10
2022-08-07T20:39:17.817Z,51.20
2022-08-07T20:44:36.893Z,51.20
2022-08-07T20:50:00.497Z,51.20
2022-08-07T20:55:08.343Z,51.20
2022-08-07T21:00:17.750Z,51.20
2022-08-07T21:05:42.580Z,51.30
2022-08-07T21:10:50.365Z,51.30
2022-08-07T21:15:59.660Z,51.40
2022-08-07T21:21:05.395Z,51.60
2022-08-07T21:26:23.530Z,51.70
2022-08-07T21:32:43.159Z,51.80
2022-08-07T21:37:05.719Z,51.70
2022-08-07T21:42:48.384Z,51.90
2022-08-07T21:48:02.581Z,51.90
2022-08-07T21:53:12.381Z,52.00
2022-08-07T21:58:32.900Z,52.00
2022-08-07T22:03:42.284Z,52.00
2022-08-07T22:08:51.345Z,52.10
2022-08-07T22:13:57.557Z,52.10
2022-08-07T22:19:08.710Z,52.30
2022-08-07T22:24:19.014Z,52.20
2022-08-07T22:29:37.767Z,52.30
2022-08-07T22:34:55.906Z,52.30
2022-08-07T22:40:08.710Z,52.50
2022-08-07T22:46:04.293Z,52.40
2022-08-07T22:50:56.661Z,52.50
2022-08-07T22:56:02.088Z,52.50
2022-08-07T23:01:50.907Z,52.50
2022-08-07T23:07:25.796Z,52.60
2022-08-07T23:12:52.793Z,52.60
2022-08-07T23:18:17.979Z,52.60
2022-08-07T23:24:11.085Z,52.70
2022-08-07T23:29:43.644Z,52.70
2022-08-07T23:35:18.289Z,52.80
2022-08-07T23:40:34.722Z,52.70
2022-08-07T23:46:02.940Z,52.80
2022-08-07T23:53:01.647Z,52.80
2022-08-07T23:56:53.825Z,52.80
